sensor_id;sensor_type;location;lat;lon;timestamp;P1;durP1;ratioP1;P2;durP2;ratioP2
30948;SDS011;17637;51.984;21.208;2022-10-31T00:01:14;113.20;;;70.22;;
30948;SDS011;17637;51.984;21.208;2022-10-31T00:03:44;112.70;;;69.22;;
30948;SDS011;17637;51.984;21.208;2022-10-31T00:06:11;97.78;;;61.33;;
30948;SDS011;17637;51.984;21.208;2022-10-31T00:08:38;96.60;;;61.55;;
30948;SDS011;17637;51.984;21.208;2022-10-31T00:11:09;112.90;;;70.88;;
30948;SDS011;17637;51.984;21.208;2022-10-31T00:13:36;112.45;;;71.38;;
30948;SDS011;17637;51.984;21.208;2022-10-31T00:16:03;96.50;;;61.85;;
30948;SDS011;17637;51.984;21.208;2022-10-31T00:18:32;90.85;;;57.08;;
30948;SDS011;17637;51.984;21.208;2022-10-31T00:21:02;80.32;;;51.75;;
30948;SDS011;17637;51.984;21.208;2022-10-31T00:23:30;84.45;;;56.33;;
30948;SDS011;17637;51.984;21.208;2022-10-31T00:26:01;95.13;;;59.63;;
30948;SDS011;17637;51.984;21.208;2022-10-31T00:28:29;96.88;;;61.60;;
30948;SDS011;17637;51.984;21.208;2022-10-31T00:30:59;92.30;;;58.67;;
30948;SDS011;17637;51.984;21.208;2022-10-31T00:33:32;93.30;;;58.25;;
30948;SDS011;17637;51.984;21.208;2022-10-31T00:36:00;91.95;;;59.22;;
30948;SDS011;17637;51.984;21.208;2022-10-31T00:38:27;79.63;;;50.28;;
30948;SDS011;17637;51.984;21.208;2022-10-31T00:40:54;86.25;;;55.30;;
30948;SDS011;17637;51.984;21.208;2022-10-31T00:43:21;87.63;;;55.38;;
30948;SDS011;17637;51.984;21.208;2022-10-31T00:45:48;88.78;;;56.67;;
30948;SDS011;17637;51.984;21.208;2022-10-31T00:48:16;88.85;;;55.28;;
30948;SDS011;17637;51.984;21.208;2022-10-31T00:50:43;83.03;;;54.35;;
30948;SDS011;17637;51.984;21.208;2022-10-31T00:53:10;81.97;;;52.17;;
30948;SDS011;17637;51.984;21.208;2022-10-31T00:55:37;84.97;;;53.60;;
30948;SDS011;17637;51.984;21.208;2022-10-31T00:58:04;84.13;;;53.90;;
30948;SDS011;17637;51.984;21.208;2022-10-31T01:00:31;89.18;;;57.15;;
30948;SDS011;17637;51.984;21.208;2022-10-31T01:02:58;92.90;;;59.67;;
30948;SDS011;17637;51.984;21.208;2022-10-31T01:05:25;81.57;;;54.85;;
30948;SDS011;17637;51.984;21.208;2022-10-31T01:07:53;83.45;;;55.80;;
30948;SDS011;17637;51.984;21.208;2022-10-31T01:10:20;88.03;;;56.97;;
30948;SDS011;17637;51.984;21.208;2022-10-31T01:12:47;70.40;;;48.03;;
30948;SDS011;17637;51.984;21.208;2022-10-31T01:15:17;78.63;;;51.38;;
30948;SDS011;17637;51.984;21.208;2022-10-31T01:17:48;87.40;;;55.67;;
30948;SDS011;17637;51.984;21.208;2022-10-31T01:20:16;87.30;;;56.63;;
30948;SDS011;17637;51.984;21.208;2022-10-31T01:22:43;77.20;;;51.63;;
30948;SDS011;17637;51.984;21.208;2022-10-31T01:25:11;69.68;;;45.83;;
30948;SDS011;17637;51.984;21.208;2022-10-31T01:27:38;76.80;;;51.53;;
30948;SDS011;17637;51.984;21.208;2022-10-31T01:30:05;82.60;;;51.97;;
30948;SDS011;17637;51.984;21.208;2022-10-31T01:32:32;82.53;;;53.85;;
30948;SDS011;17637;51.984;21.208;2022-10-31T01:34:59;75.60;;;51.50;;
30948;SDS011;17637;51.984;21.208;2022-10-31T01:37:26;79.40;;;51.83;;
30948;SDS011;17637;51.984;21.208;2022-10-31T01:39:53;63.95;;;42.95;;
30948;SDS011;17637;51.984;21.208;2022-10-31T01:42:21;78.82;;;54.55;;
30948;SDS011;17637;51.984;21.208;2022-10-31T01:44:54;69.10;;;47.72;;
30948;SDS011;17637;51.984;21.208;2022-10-31T01:47:32;76.10;;;53.03;;
30948;SDS011;17637;51.984;21.208;2022-10-31T01:50:06;71.35;;;52.28;;
30948;SDS011;17637;51.984;21.208;2022-10-31T01:52:40;75.35;;;52.17;;
30948;SDS011;17637;51.984;21.208;2022-10-31T01:57:57;70.93;;;49.97;;
30948;SDS011;17637;51.984;21.208;2022-10-31T02:00:29;71.40;;;49.67;;
30948;SDS011;17637;51.984;21.208;2022-10-31T02:02:56;71.00;;;46.08;;
30948;SDS011;17637;51.984;21.208;2022-10-31T02:05:24;76.45;;;49.90;;
30948;SDS011;17637;51.984;21.208;2022-10-31T02:07:57;71.90;;;49.97;;
30948;SDS011;17637;51.984;21.208;2022-10-31T02:10:29;69.40;;;46.28;;
30948;SDS011;17637;51.984;21.208;2022-10-31T02:12:58;70.20;;;48.17;;
30948;SDS011;17637;51.984;21.208;2022-10-31T02:15:29;64.15;;;47.22;;
30948;SDS011;17637;51.984;21.208;2022-10-31T02:17:57;71.63;;;49.65;;
30948;SDS011;17637;51.984;21.208;2022-10-31T02:20:25;73.70;;;50.67;;
30948;SDS011;17637;51.984;21.208;2022-10-31T02:34:38;90.55;;;54.78;;
30948;SDS011;17637;51.984;21.208;2022-10-31T02:37:22;75.28;;;48.35;;
30948;SDS011;17637;51.984;21.208;2022-10-31T02:40:03;67.63;;;43.60;;
30948;SDS011;17637;51.984;21.208;2022-10-31T02:45:14;67.53;;;45.72;;
30948;SDS011;17637;51.984;21.208;2022-10-31T02:47:45;64.78;;;41.67;;
30948;SDS011;17637;51.984;21.208;2022-10-31T02:52:43;62.15;;;43.88;;
30948;SDS011;17637;51.984;21.208;2022-10-31T02:57:39;67.60;;;43.88;;
30948;SDS011;17637;51.984;21.208;2022-10-31T03:00:09;60.80;;;41.67;;
30948;SDS011;17637;51.984;21.208;2022-10-31T03:10:59;57.28;;;39.05;;
30948;SDS011;17637;51.984;21.208;2022-10-31T03:16:50;43.30;;;30.95;;
30948;SDS011;17637;51.984;21.208;2022-10-31T03:19:28;50.65;;;36.45;;
30948;SDS011;17637;51.984;21.208;2022-10-31T03:22:06;45.10;;;33.05;;
30948;SDS011;17637;51.984;21.208;2022-10-31T03:24:40;46.90;;;35.13;;
30948;SDS011;17637;51.984;21.208;2022-10-31T03:27:10;45.33;;;34.40;;
30948;SDS011;17637;51.984;21.208;2022-10-31T03:29:41;44.00;;;32.60;;
30948;SDS011;17637;51.984;21.208;2022-10-31T03:32:18;50.30;;;36.42;;
30948;SDS011;17637;51.984;21.208;2022-10-31T03:34:48;42.97;;;30.83;;
30948;SDS011;17637;51.984;21.208;2022-10-31T03:37:19;48.10;;;32.65;;
30948;SDS011;17637;51.984;21.208;2022-10-31T03:39:48;61.85;;;40.22;;
30948;SDS011;17637;51.984;21.208;2022-10-31T03:42:25;55.25;;;38.72;;
30948;SDS011;17637;51.984;21.208;2022-10-31T03:47:28;67.75;;;43.65;;
30948;SDS011;17637;51.984;21.208;2022-10-31T03:49:56;61.85;;;41.13;;
30948;SDS011;17637;51.984;21.208;2022-10-31T03:55:10;122.13;;;47.28;;
30948;SDS011;17637;51.984;21.208;2022-10-31T04:00:34;63.83;;;40.72;;
30948;SDS011;17637;51.984;21.208;2022-10-31T04:03:14;62.30;;;40.88;;
30948;SDS011;17637;51.984;21.208;2022-10-31T04:05:44;61.35;;;40.25;;
30948;SDS011;17637;51.984;21.208;2022-10-31T04:08:18;57.78;;;39.10;;
30948;SDS011;17637;51.984;21.208;2022-10-31T04:10:50;53.45;;;35.90;;
30948;SDS011;17637;51.984;21.208;2022-10-31T04:13:21;59.50;;;37.63;;
30948;SDS011;17637;51.984;21.208;2022-10-31T04:15:52;50.90;;;34.10;;
30948;SDS011;17637;51.984;21.208;2022-10-31T04:18:24;45.38;;;31.00;;
30948;SDS011;17637;51.984;21.208;2022-10-31T04:21:05;46.70;;;31.92;;
30948;SDS011;17637;51.984;21.208;2022-10-31T04:23:34;52.85;;;35.95;;
30948;SDS011;17637;51.984;21.208;2022-10-31T04:26:03;39.97;;;28.70;;
30948;SDS011;17637;51.984;21.208;2022-10-31T04:28:30;51.97;;;35.10;;
30948;SDS011;17637;51.984;21.208;2022-10-31T04:30:59;55.38;;;35.72;;
30948;SDS011;17637;51.984;21.208;2022-10-31T04:33:26;55.25;;;37.72;;
30948;SDS011;17637;51.984;21.208;2022-10-31T04:35:53;77.72;;;37.60;;
30948;SDS011;17637;51.984;21.208;2022-10-31T04:38:20;195.20;;;48.75;;
30948;SDS011;17637;51.984;21.208;2022-10-31T04:40:47;293.17;;;54.72;;
30948;SDS011;17637;51.984;21.208;2022-10-31T04:43:14;189.90;;;50.03;;
30948;SDS011;17637;51.984;21.208;2022-10-31T04:45:41;254.77;;;56.10;;
30948;SDS011;17637;51.984;21.208;2022-10-31T04:48:08;99.45;;;38.45;;
30948;SDS011;17637;51.984;21.208;2022-10-31T04:50:35;66.03;;;33.70;;
30948;SDS011;17637;51.984;21.208;2022-10-31T04:53:02;73.47;;;42.50;;
30948;SDS011;17637;51.984;21.208;2022-10-31T04:55:29;91.35;;;44.05;;
30948;SDS011;17637;51.984;21.208;2022-10-31T04:57:56;49.70;;;31.13;;
30948;SDS011;17637;51.984;21.208;2022-10-31T05:00:24;85.22;;;36.75;;
30948;SDS011;17637;51.984;21.208;2022-10-31T05:02:52;56.65;;;35.05;;
30948;SDS011;17637;51.984;21.208;2022-10-31T05:05:22;54.25;;;33.47;;
30948;SDS011;17637;51.984;21.208;2022-10-31T05:07:51;64.60;;;35.40;;
30948;SDS011;17637;51.984;21.208;2022-10-31T05:10:20;64.15;;;35.50;;
30948;SDS011;17637;51.984;21.208;2022-10-31T05:12:56;69.10;;;34.33;;
30948;SDS011;17637;51.984;21.208;2022-10-31T05:15:26;132.50;;;40.92;;
30948;SDS011;17637;51.984;21.208;2022-10-31T05:17:54;180.10;;;41.10;;
30948;SDS011;17637;51.984;21.208;2022-10-31T05:20:23;218.57;;;42.95;;
30948;SDS011;17637;51.984;21.208;2022-10-31T05:22:53;157.00;;;34.22;;
30948;SDS011;17637;51.984;21.208;2022-10-31T05:25:22;156.43;;;38.58;;
30948;SDS011;17637;51.984;21.208;2022-10-31T05:27:50;75.07;;;28.10;;
30948;SDS011;17637;51.984;21.208;2022-10-31T05:30:23;120.38;;;33.25;;
30948;SDS011;17637;51.984;21.208;2022-10-31T05:32:55;66.43;;;31.80;;
30948;SDS011;17637;51.984;21.208;2022-10-31T05:35:24;67.18;;;30.63;;
30948;SDS011;17637;51.984;21.208;2022-10-31T05:37:55;72.25;;;27.75;;
30948;SDS011;17637;51.984;21.208;2022-10-31T05:40:24;67.88;;;30.23;;
30948;SDS011;17637;51.984;21.208;2022-10-31T05:42:53;67.20;;;26.85;;
30948;SDS011;17637;51.984;21.208;2022-10-31T05:45:22;72.20;;;26.55;;
30948;SDS011;17637;51.984;21.208;2022-10-31T05:47:54;127.07;;;30.88;;
30948;SDS011;17637;51.984;21.208;2022-10-31T05:50:23;158.02;;;32.35;;
30948;SDS011;17637;51.984;21.208;2022-10-31T05:52:56;109.10;;;27.25;;
30948;SDS011;17637;51.984;21.208;2022-10-31T05:55:25;134.23;;;28.88;;
30948;SDS011;17637;51.984;21.208;2022-10-31T05:57:53;149.85;;;24.27;;
30948;SDS011;17637;51.984;21.208;2022-10-31T06:00:21;252.30;;;31.92;;
30948;SDS011;17637;51.984;21.208;2022-10-31T06:02:48;281.20;;;37.88;;
30948;SDS011;17637;51.984;21.208;2022-10-31T06:05:15;137.70;;;23.45;;
30948;SDS011;17637;51.984;21.208;2022-10-31T06:07:43;178.45;;;28.25;;
30948;SDS011;17637;51.984;21.208;2022-10-31T06:10:10;190.75;;;30.95;;
30948;SDS011;17637;51.984;21.208;2022-10-31T06:12:37;183.23;;;33.08;;
30948;SDS011;17637;51.984;21.208;2022-10-31T06:15:04;112.55;;;24.77;;
30948;SDS011;17637;51.984;21.208;2022-10-31T06:17:33;113.60;;;30.95;;
30948;SDS011;17637;51.984;21.208;2022-10-31T06:20:00;107.25;;;35.95;;
30948;SDS011;17637;51.984;21.208;2022-10-31T06:22:28;100.47;;;28.52;;
30948;SDS011;17637;51.984;21.208;2022-10-31T06:24:55;65.50;;;24.55;;
30948;SDS011;17637;51.984;21.208;2022-10-31T06:27:23;119.43;;;30.00;;
30948;SDS011;17637;51.984;21.208;2022-10-31T06:29:50;185.30;;;32.28;;
30948;SDS011;17637;51.984;21.208;2022-10-31T06:32:18;112.40;;;26.45;;
30948;SDS011;17637;51.984;21.208;2022-10-31T06:34:45;117.93;;;25.13;;
30948;SDS011;17637;51.984;21.208;2022-10-31T06:37:14;101.38;;;24.58;;
30948;SDS011;17637;51.984;21.208;2022-10-31T06:39:42;48.42;;;20.70;;
30948;SDS011;17637;51.984;21.208;2022-10-31T06:42:09;58.80;;;21.65;;
30948;SDS011;17637;51.984;21.208;2022-10-31T06:44:36;71.93;;;22.92;;
30948;SDS011;17637;51.984;21.208;2022-10-31T06:47:03;78.32;;;23.33;;
30948;SDS011;17637;51.984;21.208;2022-10-31T06:49:31;89.90;;;24.98;;
30948;SDS011;17637;51.984;21.208;2022-10-31T06:51:59;123.28;;;28.92;;
30948;SDS011;17637;51.984;21.208;2022-10-31T06:54:26;46.53;;;21.33;;
30948;SDS011;17637;51.984;21.208;2022-10-31T06:56:53;100.63;;;25.17;;
30948;SDS011;17637;51.984;21.208;2022-10-31T06:59:19;56.97;;;19.48;;
30948;SDS011;17637;51.984;21.208;2022-10-31T07:01:46;114.63;;;26.02;;
30948;SDS011;17637;51.984;21.208;2022-10-31T07:04:13;77.80;;;23.33;;
30948;SDS011;17637;51.984;21.208;2022-10-31T07:06:40;107.63;;;26.02;;
30948;SDS011;17637;51.984;21.208;2022-10-31T07:09:08;81.40;;;24.88;;
30948;SDS011;17637;51.984;21.208;2022-10-31T07:11:35;43.70;;;18.88;;
30948;SDS011;17637;51.984;21.208;2022-10-31T07:14:02;57.15;;;22.80;;
30948;SDS011;17637;51.984;21.208;2022-10-31T07:16:29;52.92;;;23.67;;
30948;SDS011;17637;51.984;21.208;2022-10-31T07:18:56;62.38;;;23.90;;
30948;SDS011;17637;51.984;21.208;2022-10-31T07:21:23;71.55;;;23.92;;
30948;SDS011;17637;51.984;21.208;2022-10-31T07:23:50;64.13;;;22.80;;
30948;SDS011;17637;51.984;21.208;2022-10-31T07:26:17;43.72;;;20.70;;
30948;SDS011;17637;51.984;21.208;2022-10-31T07:28:45;48.22;;;22.30;;
30948;SDS011;17637;51.984;21.208;2022-10-31T07:31:14;124.50;;;27.40;;
30948;SDS011;17637;51.984;21.208;2022-10-31T07:33:41;58.30;;;24.77;;
30948;SDS011;17637;51.984;21.208;2022-10-31T07:36:08;61.53;;;25.95;;
30948;SDS011;17637;51.984;21.208;2022-10-31T07:38:35;47.22;;;21.23;;
30948;SDS011;17637;51.984;21.208;2022-10-31T07:41:02;84.00;;;22.55;;
30948;SDS011;17637;51.984;21.208;2022-10-31T07:43:29;39.92;;;18.52;;
30948;SDS011;17637;51.984;21.208;2022-10-31T07:45:56;78.72;;;20.65;;
30948;SDS011;17637;51.984;21.208;2022-10-31T07:48:23;53.63;;;18.92;;
30948;SDS011;17637;51.984;21.208;2022-10-31T07:50:50;35.20;;;16.50;;
30948;SDS011;17637;51.984;21.208;2022-10-31T07:53:18;53.25;;;20.08;;
30948;SDS011;17637;51.984;21.208;2022-10-31T07:55:45;75.88;;;20.90;;
30948;SDS011;17637;51.984;21.208;2022-10-31T07:58:12;39.10;;;19.67;;
30948;SDS011;17637;51.984;21.208;2022-10-31T08:00:44;45.17;;;19.42;;
30948;SDS011;17637;51.984;21.208;2022-10-31T08:03:14;95.03;;;22.85;;
30948;SDS011;17637;51.984;21.208;2022-10-31T08:05:42;50.47;;;19.95;;
30948;SDS011;17637;51.984;21.208;2022-10-31T08:08:12;96.75;;;29.05;;
30948;SDS011;17637;51.984;21.208;2022-10-31T08:10:40;110.15;;;49.45;;
30948;SDS011;17637;51.984;21.208;2022-10-31T08:13:11;171.30;;;98.68;;
30948;SDS011;17637;51.984;21.208;2022-10-31T08:15:39;171.75;;;31.98;;
30948;SDS011;17637;51.984;21.208;2022-10-31T08:18:15;73.05;;;27.85;;
30948;SDS011;17637;51.984;21.208;2022-10-31T08:20:43;90.07;;;32.28;;
30948;SDS011;17637;51.984;21.208;2022-10-31T08:23:10;143.60;;;27.10;;
30948;SDS011;17637;51.984;21.208;2022-10-31T08:25:38;80.07;;;21.27;;
30948;SDS011;17637;51.984;21.208;2022-10-31T08:28:07;87.13;;;24.02;;
30948;SDS011;17637;51.984;21.208;2022-10-31T08:30:36;103.63;;;21.23;;
30948;SDS011;17637;51.984;21.208;2022-10-31T08:33:05;50.78;;;23.40;;
30948;SDS011;17637;51.984;21.208;2022-10-31T08:35:35;58.63;;;22.85;;
30948;SDS011;17637;51.984;21.208;2022-10-31T08:38:02;105.47;;;25.90;;
30948;SDS011;17637;51.984;21.208;2022-10-31T08:40:30;124.55;;;26.23;;
30948;SDS011;17637;51.984;21.208;2022-10-31T08:42:59;101.45;;;23.55;;
30948;SDS011;17637;51.984;21.208;2022-10-31T08:45:31;52.20;;;20.52;;
30948;SDS011;17637;51.984;21.208;2022-10-31T08:47:59;66.35;;;25.20;;
30948;SDS011;17637;51.984;21.208;2022-10-31T08:50:29;32.17;;;18.27;;
30948;SDS011;17637;51.984;21.208;2022-10-31T08:53:05;81.38;;;24.42;;
30948;SDS011;17637;51.984;21.208;2022-10-31T08:55:37;51.20;;;23.10;;
30948;SDS011;17637;51.984;21.208;2022-10-31T08:58:06;49.35;;;22.98;;
30948;SDS011;17637;51.984;21.208;2022-10-31T09:00:37;51.20;;;24.38;;
30948;SDS011;17637;51.984;21.208;2022-10-31T09:03:08;40.03;;;24.30;;
30948;SDS011;17637;51.984;21.208;2022-10-31T09:05:37;45.00;;;24.30;;
30948;SDS011;17637;51.984;21.208;2022-10-31T09:08:05;44.00;;;26.23;;
30948;SDS011;17637;51.984;21.208;2022-10-31T09:10:41;51.40;;;30.45;;
30948;SDS011;17637;51.984;21.208;2022-10-31T09:13:09;48.63;;;28.27;;
30948;SDS011;17637;51.984;21.208;2022-10-31T09:15:39;41.83;;;27.40;;
30948;SDS011;17637;51.984;21.208;2022-10-31T09:18:08;39.45;;;26.85;;
30948;SDS011;17637;51.984;21.208;2022-10-31T09:20:35;61.28;;;37.58;;
30948;SDS011;17637;51.984;21.208;2022-10-31T09:23:08;51.35;;;34.90;;
30948;SDS011;17637;51.984;21.208;2022-10-31T09:25:37;57.38;;;38.28;;
30948;SDS011;17637;51.984;21.208;2022-10-31T09:28:05;52.08;;;35.83;;
30948;SDS011;17637;51.984;21.208;2022-10-31T09:30:34;45.97;;;31.80;;
30948;SDS011;17637;51.984;21.208;2022-10-31T09:33:03;47.53;;;31.52;;
30948;SDS011;17637;51.984;21.208;2022-10-31T09:35:31;44.90;;;31.80;;
30948;SDS011;17637;51.984;21.208;2022-10-31T09:38:00;40.67;;;29.42;;
30948;SDS011;17637;51.984;21.208;2022-10-31T09:40:33;41.30;;;29.48;;
30948;SDS011;17637;51.984;21.208;2022-10-31T09:48:45;54.30;;;37.28;;
30948;SDS011;17637;51.984;21.208;2022-10-31T09:51:18;68.32;;;45.47;;
30948;SDS011;17637;51.984;21.208;2022-10-31T09:54:01;53.80;;;37.75;;
30948;SDS011;17637;51.984;21.208;2022-10-31T09:56:32;60.20;;;40.58;;
30948;SDS011;17637;51.984;21.208;2022-10-31T09:59:00;51.55;;;36.47;;
30948;SDS011;17637;51.984;21.208;2022-10-31T10:04:17;38.53;;;27.80;;
30948;SDS011;17637;51.984;21.208;2022-10-31T10:07:55;31.98;;;24.65;;
30948;SDS011;17637;51.984;21.208;2022-10-31T10:10:13;41.83;;;33.92;;
30948;SDS011;17637;51.984;21.208;2022-10-31T10:19:07;38.95;;;28.63;;
30948;SDS011;17637;51.984;21.208;2022-10-31T10:21:41;40.75;;;28.23;;
30948;SDS011;17637;51.984;21.208;2022-10-31T10:26:52;40.25;;;29.08;;
30948;SDS011;17637;51.984;21.208;2022-10-31T10:29:50;43.67;;;30.08;;
30948;SDS011;17637;51.984;21.208;2022-10-31T10:32:30;46.10;;;32.97;;
30948;SDS011;17637;51.984;21.208;2022-10-31T10:35:19;38.20;;;28.30;;
30948;SDS011;17637;51.984;21.208;2022-10-31T10:37:49;37.70;;;29.10;;
30948;SDS011;17637;51.984;21.208;2022-10-31T10:40:20;38.15;;;28.95;;
30948;SDS011;17637;51.984;21.208;2022-10-31T10:49:59;37.22;;;28.10;;
30948;SDS011;17637;51.984;21.208;2022-10-31T11:00:26;33.25;;;24.92;;
30948;SDS011;17637;51.984;21.208;2022-10-31T11:02:54;32.95;;;24.50;;
30948;SDS011;17637;51.984;21.208;2022-10-31T11:05:23;33.72;;;26.38;;
30948;SDS011;17637;51.984;21.208;2022-10-31T11:07:51;32.33;;;25.02;;
30948;SDS011;17637;51.984;21.208;2022-10-31T11:10:18;35.10;;;26.70;;
30948;SDS011;17637;51.984;21.208;2022-10-31T11:12:56;28.83;;;23.35;;
30948;SDS011;17637;51.984;21.208;2022-10-31T11:15:27;32.67;;;25.45;;
30948;SDS011;17637;51.984;21.208;2022-10-31T11:17:57;33.70;;;24.88;;
30948;SDS011;17637;51.984;21.208;2022-10-31T11:20:32;29.77;;;23.17;;
30948;SDS011;17637;51.984;21.208;2022-10-31T11:23:03;34.80;;;25.13;;
30948;SDS011;17637;51.984;21.208;2022-10-31T11:25:50;28.45;;;21.67;;
30948;SDS011;17637;51.984;21.208;2022-10-31T11:28:23;34.15;;;24.90;;
30948;SDS011;17637;51.984;21.208;2022-10-31T11:30:54;29.00;;;23.05;;
30948;SDS011;17637;51.984;21.208;2022-10-31T11:35:57;28.17;;;20.75;;
30948;SDS011;17637;51.984;21.208;2022-10-31T11:38:33;29.55;;;22.35;;
30948;SDS011;17637;51.984;21.208;2022-10-31T11:41:16;25.95;;;21.63;;
30948;SDS011;17637;51.984;21.208;2022-10-31T11:43:46;28.27;;;21.30;;
30948;SDS011;17637;51.984;21.208;2022-10-31T11:46:21;27.80;;;21.73;;
30948;SDS011;17637;51.984;21.208;2022-10-31T11:48:54;29.38;;;23.05;;
30948;SDS011;17637;51.984;21.208;2022-10-31T11:51:25;33.25;;;24.55;;
30948;SDS011;17637;51.984;21.208;2022-10-31T11:53:58;27.90;;;22.15;;
30948;SDS011;17637;51.984;21.208;2022-10-31T11:56:39;24.98;;;20.52;;
30948;SDS011;17637;51.984;21.208;2022-10-31T12:01:56;26.67;;;21.40;;
30948;SDS011;17637;51.984;21.208;2022-10-31T12:04:38;33.30;;;25.73;;
30948;SDS011;17637;51.984;21.208;2022-10-31T12:07:11;57.97;;;40.47;;
30948;SDS011;17637;51.984;21.208;2022-10-31T12:09:38;55.90;;;36.85;;
30948;SDS011;17637;51.984;21.208;2022-10-31T12:15:07;28.27;;;20.75;;
30948;SDS011;17637;51.984;21.208;2022-10-31T12:17:44;23.17;;;17.30;;
30948;SDS011;17637;51.984;21.208;2022-10-31T12:25:51;24.35;;;17.13;;
30948;SDS011;17637;51.984;21.208;2022-10-31T12:40:26;21.60;;;15.93;;
30948;SDS011;17637;51.984;21.208;2022-10-31T12:46:07;28.73;;;21.15;;
30948;SDS011;17637;51.984;21.208;2022-10-31T13:00:04;24.90;;;20.48;;
30948;SDS011;17637;51.984;21.208;2022-10-31T13:02:46;25.70;;;20.60;;
30948;SDS011;17637;51.984;21.208;2022-10-31T13:07:50;29.57;;;22.57;;
30948;SDS011;17637;51.984;21.208;2022-10-31T13:15:49;29.35;;;21.98;;
30948;SDS011;17637;51.984;21.208;2022-10-31T13:18:25;30.45;;;22.38;;
30948;SDS011;17637;51.984;21.208;2022-10-31T13:20:57;26.00;;;20.70;;
30948;SDS011;17637;51.984;21.208;2022-10-31T13:23:29;31.15;;;25.05;;
30948;SDS011;17637;51.984;21.208;2022-10-31T13:26:22;26.70;;;22.20;;
30948;SDS011;17637;51.984;21.208;2022-10-31T13:29:42;31.35;;;23.67;;
30948;SDS011;17637;51.984;21.208;2022-10-31T13:31:58;29.15;;;23.63;;
30948;SDS011;17637;51.984;21.208;2022-10-31T13:34:29;27.83;;;22.38;;
30948;SDS011;17637;51.984;21.208;2022-10-31T13:39:48;28.00;;;22.08;;
30948;SDS011;17637;51.984;21.208;2022-10-31T13:42:54;32.88;;;22.60;;
30948;SDS011;17637;51.984;21.208;2022-10-31T13:45:31;31.23;;;25.08;;
30948;SDS011;17637;51.984;21.208;2022-10-31T13:47:59;32.58;;;25.30;;
30948;SDS011;17637;51.984;21.208;2022-10-31T13:50:29;30.23;;;22.63;;
30948;SDS011;17637;51.984;21.208;2022-10-31T13:53:11;35.08;;;25.83;;
30948;SDS011;17637;51.984;21.208;2022-10-31T13:55:45;34.88;;;26.95;;
30948;SDS011;17637;51.984;21.208;2022-10-31T14:01:05;35.63;;;26.27;;
30948;SDS011;17637;51.984;21.208;2022-10-31T14:06:45;42.80;;;29.35;;
30948;SDS011;17637;51.984;21.208;2022-10-31T14:09:26;43.80;;;29.67;;
30948;SDS011;17637;51.984;21.208;2022-10-31T14:11:56;39.10;;;28.23;;
30948;SDS011;17637;51.984;21.208;2022-10-31T14:14:29;40.35;;;27.08;;
30948;SDS011;17637;51.984;21.208;2022-10-31T14:17:01;42.75;;;31.02;;
30948;SDS011;17637;51.984;21.208;2022-10-31T14:19:29;43.40;;;28.83;;
30948;SDS011;17637;51.984;21.208;2022-10-31T14:21:56;43.53;;;29.77;;
30948;SDS011;17637;51.984;21.208;2022-10-31T14:26:54;55.00;;;34.22;;
30948;SDS011;17637;51.984;21.208;2022-10-31T14:29:24;56.65;;;35.47;;
30948;SDS011;17637;51.984;21.208;2022-10-31T14:31:57;46.63;;;29.98;;
30948;SDS011;17637;51.984;21.208;2022-10-31T14:39:58;51.45;;;32.60;;
30948;SDS011;17637;51.984;21.208;2022-10-31T14:43:11;48.90;;;34.67;;
30948;SDS011;17637;51.984;21.208;2022-10-31T14:51:01;50.65;;;34.80;;
30948;SDS011;17637;51.984;21.208;2022-10-31T14:53:46;55.78;;;38.67;;
30948;SDS011;17637;51.984;21.208;2022-10-31T14:56:16;55.47;;;37.97;;
30948;SDS011;17637;51.984;21.208;2022-10-31T14:58:49;59.40;;;40.42;;
30948;SDS011;17637;51.984;21.208;2022-10-31T15:01:24;70.55;;;44.42;;
30948;SDS011;17637;51.984;21.208;2022-10-31T15:04:07;55.42;;;37.60;;
30948;SDS011;17637;51.984;21.208;2022-10-31T15:06:52;62.70;;;41.25;;
30948;SDS011;17637;51.984;21.208;2022-10-31T15:09:26;53.97;;;36.50;;
30948;SDS011;17637;51.984;21.208;2022-10-31T15:11:58;51.15;;;34.08;;
30948;SDS011;17637;51.984;21.208;2022-10-31T15:14:27;64.50;;;40.78;;
30948;SDS011;17637;51.984;21.208;2022-10-31T15:16:57;56.88;;;36.70;;
30948;SDS011;17637;51.984;21.208;2022-10-31T15:19:28;59.60;;;38.30;;
30948;SDS011;17637;51.984;21.208;2022-10-31T15:21:58;67.00;;;40.78;;
30948;SDS011;17637;51.984;21.208;2022-10-31T15:24:29;67.13;;;40.10;;
30948;SDS011;17637;51.984;21.208;2022-10-31T15:27:00;79.65;;;44.65;;
30948;SDS011;17637;51.984;21.208;2022-10-31T15:29:30;81.57;;;43.17;;
30948;SDS011;17637;51.984;21.208;2022-10-31T15:31:59;75.25;;;42.35;;
30948;SDS011;17637;51.984;21.208;2022-10-31T15:34:33;84.97;;;44.85;;
30948;SDS011;17637;51.984;21.208;2022-10-31T15:37:15;80.90;;;43.88;;
30948;SDS011;17637;51.984;21.208;2022-10-31T15:39:44;92.32;;;44.35;;
30948;SDS011;17637;51.984;21.208;2022-10-31T15:42:27;94.60;;;44.45;;
30948;SDS011;17637;51.984;21.208;2022-10-31T15:47:28;109.25;;;47.97;;
30948;SDS011;17637;51.984;21.208;2022-10-31T15:49:57;125.03;;;50.35;;
30948;SDS011;17637;51.984;21.208;2022-10-31T15:52:34;130.70;;;52.45;;
30948;SDS011;17637;51.984;21.208;2022-10-31T15:55:19;180.43;;;55.28;;
30948;SDS011;17637;51.984;21.208;2022-10-31T15:57:58;159.88;;;55.00;;
30948;SDS011;17637;51.984;21.208;2022-10-31T16:00:34;109.00;;;47.97;;
30948;SDS011;17637;51.984;21.208;2022-10-31T16:03:19;159.23;;;49.10;;
30948;SDS011;17637;51.984;21.208;2022-10-31T16:05:55;188.52;;;53.28;;
30948;SDS011;17637;51.984;21.208;2022-10-31T16:10:52;134.77;;;47.80;;
30948;SDS011;17637;51.984;21.208;2022-10-31T16:13:22;142.57;;;52.40;;
30948;SDS011;17637;51.984;21.208;2022-10-31T16:16:03;151.52;;;53.88;;
30948;SDS011;17637;51.984;21.208;2022-10-31T16:18:57;152.10;;;55.55;;
30948;SDS011;17637;51.984;21.208;2022-10-31T16:21:30;313.80;;;73.00;;
30948;SDS011;17637;51.984;21.208;2022-10-31T16:24:05;192.73;;;62.05;;
30948;SDS011;17637;51.984;21.208;2022-10-31T16:26:51;276.15;;;70.85;;
30948;SDS011;17637;51.984;21.208;2022-10-31T16:31:58;345.40;;;80.47;;
30948;SDS011;17637;51.984;21.208;2022-10-31T16:34:26;205.80;;;66.82;;
30948;SDS011;17637;51.984;21.208;2022-10-31T16:36:53;382.52;;;81.15;;
30948;SDS011;17637;51.984;21.208;2022-10-31T16:39:20;261.90;;;68.97;;
30948;SDS011;17637;51.984;21.208;2022-10-31T16:41:48;178.73;;;61.28;;
30948;SDS011;17637;51.984;21.208;2022-10-31T16:44:25;203.13;;;67.18;;
30948;SDS011;17637;51.984;21.208;2022-10-31T16:49:36;415.50;;;80.05;;
30948;SDS011;17637;51.984;21.208;2022-10-31T16:52:03;308.42;;;72.75;;
30948;SDS011;17637;51.984;21.208;2022-10-31T16:54:32;164.68;;;55.70;;
30948;SDS011;17637;51.984;21.208;2022-10-31T16:56:59;156.70;;;57.97;;
30948;SDS011;17637;51.984;21.208;2022-10-31T16:59:27;177.82;;;57.97;;
30948;SDS011;17637;51.984;21.208;2022-10-31T17:01:56;154.68;;;58.25;;
30948;SDS011;17637;51.984;21.208;2022-10-31T17:04:25;218.77;;;66.38;;